Time;durP1;ratioP1;P1;durP2;ratioP2;P2;SDS_P1;SDS_P2;PMS_P1;PMS_P2;Temp;Humidity;BMP_temperature;BMP_pressure;BME280_temperature;BME280_humidity;BME280_pressure;Samples;Min_cycle;Max_cycle;Signal;HPM_P1;HPM_P2
2022/01/24 00:00:22;;;;;;;1.03;0.60;;;6.70;1.00;;;;;;5056121;28;20646;-75
2022/01/24 00:02:48;;;;;;;0.77;0.60;;;;;;;;;;5055878;28;20445;-75
2022/01/24 00:05:16;;;;;;;0.50;0.50;;;6.70;1.00;;;;;;5055726;28;20398;-75
2022/01/24 00:07:42;;;;;;;2.30;0.60;;;;;;;;;;5057637;28;20430;-75
2022/01/24 00:10:14;;;;;;;0.60;0.60;;;6.80;1.00;;;;;;5065716;28;20826;-75
2022/01/24 00:26:49;;;;;;;0.60;0.60;;;6.60;1.00;;;;;;4977056;28;20446;-75
2022/01/24 00:29:20;;;;;;;0.60;0.60;;;6.60;1.00;;;;;;4988056;28;20446;-75
2022/01/24 00:31:46;;;;;;;0.63;0.63;;;6.60;1.00;;;;;;4983461;28;20221;-75
2022/01/24 00:34:13;;;;;;;0.93;0.83;;;6.60;1.00;;;;;;4993471;28;20565;-75
2022/01/24 00:36:40;;;;;;;0.70;0.70;;;6.70;1.00;;;;;;4981402;28;21114;-75
2022/01/24 00:39:06;;;;;;;0.97;0.60;;;6.60;1.00;;;;;;4993130;28;20421;-75
2022/01/24 00:41:43;;;;;;;1.00;0.60;;;6.70;1.00;;;;;;4980737;28;20475;-75
2022/01/24 00:46:59;;;;;;;1.73;0.60;;;6.60;1.00;;;;;;4986324;28;20420;-75
2022/01/24 00:54:54;;;;;;;0.80;0.70;;;6.60;1.00;;;;;;5075290;28;20903;-75
2022/01/24 00:57:20;;;;;;;0.60;0.50;;;6.60;1.00;;;;;;5063202;28;20406;-75
2022/01/24 00:59:47;;;;;;;0.60;0.60;;;6.60;1.00;;;;;;5072516;28;20422;-75
2022/01/24 01:02:13;;;;;;;0.60;0.60;;;6.70;1.00;;;;;;5074765;28;20780;-76
2022/01/24 01:07:19;;;;;;;0.50;0.50;;;6.60;1.00;;;;;;5065276;28;20433;-75
2022/01/24 01:18:16;;;;;;;0.60;0.60;;;6.60;1.00;;;;;;5074681;28;20922;-75
2022/01/24 01:23:21;;;;;;;0.93;0.50;;;6.60;1.00;;;;;;5074401;28;20413;-75
2022/01/24 01:25:48;;;;;;;0.50;0.50;;;6.60;1.00;;;;;;5074581;28;20965;-75
2022/01/24 01:28:15;;;;;;;0.87;0.50;;;6.60;1.00;;;;;;5072319;28;20261;-75
2022/01/24 01:30:45;;;;;;;1.53;0.80;;;6.70;1.00;;;;;;5062774;28;21461;-75
2022/01/24 01:57:16;;;;;;;0.50;0.50;;;6.60;1.00;;;;;;5066874;28;20426;-75
2022/01/24 01:59:43;;;;;;;0.60;0.60;;;6.50;1.00;;;;;;5063563;28;20197;-75
2022/01/24 02:02:09;;;;;;;0.50;0.50;;;6.50;1.00;;;;;;5060798;28;20516;-75
2022/01/24 02:04:34;;;;;;;1.30;0.70;;;6.60;1.00;;;;;;5073486;28;20413;-75
2022/01/24 02:07:02;;;;;;;1.07;0.60;;;6.60;1.00;;;;;;5073455;28;20814;-75
2022/01/24 02:09:33;;;;;;;0.60;0.60;;;6.50;1.00;;;;;;5049961;28;20654;-75
2022/01/24 02:11:58;;;;;;;0.60;0.60;;;6.50;1.00;;;;;;5059491;28;20479;-75
2022/01/24 02:14:31;;;;;;;0.70;0.63;;;6.50;1.00;;;;;;5073518;28;20405;-75
2022/01/24 02:17:04;;;;;;;0.60;0.60;;;6.50;1.00;;;;;;5073192;28;20943;-75
2022/01/24 02:20:04;;;;;;;1.03;0.90;;;6.50;1.00;;;;;;5068767;28;20426;-75
2022/01/24 02:22:44;;;;;;;2.10;0.80;;;6.50;1.00;;;;;;5063111;28;20482;-75
2022/01/24 02:25:23;;;;;;;0.53;0.53;;;6.50;1.00;;;;;;5067278;28;20460;-75
2022/01/24 02:27:55;;;;;;;1.00;1.00;;;6.50;1.00;;;;;;5067610;28;20409;-75
2022/01/24 02:30:51;;;;;;;7.33;0.70;;;6.50;1.00;;;;;;5067086;28;20444;-75
2022/01/24 02:33:17;;;;;;;0.60;0.60;;;6.50;1.00;;;;;;5070948;28;20413;-75
2022/01/24 02:35:43;;;;;;;0.50;0.50;;;6.50;1.00;;;;;;5069713;28;20471;-75
2022/01/24 02:38:21;;;;;;;0.57;0.57;;;6.60;1.00;;;;;;5072203;28;20634;-75
2022/01/24 02:49:19;;;;;;;0.70;0.60;;;6.50;1.00;;;;;;5016065;28;20426;-75
2022/01/24 02:51:47;;;;;;;0.50;0.50;;;6.50;1.00;;;;;;5017894;28;20977;-75
2022/01/24 02:54:32;;;;;;;1.23;0.70;;;6.50;1.00;;;;;;5030663;28;20187;-75
2022/01/24 02:56:58;;;;;;;1.00;0.70;;;6.50;1.00;;;;;;5022641;28;20410;-75
2022/01/24 02:59:25;;;;;;;0.70;0.70;;;6.60;1.00;;;;;;5017210;28;20615;-75
2022/01/24 03:01:51;;;;;;;0.87;0.80;;;6.60;1.00;;;;;;5029803;28;20196;-76
2022/01/24 03:04:17;;;;;;;0.53;0.53;;;6.50;1.00;;;;;;5030244;28;20433;-75
2022/01/24 03:06:42;;;;;;;0.70;0.60;;;6.50;1.00;;;;;;5030575;28;20411;-75
2022/01/24 03:09:09;;;;;;;0.50;0.50;;;6.50;1.00;;;;;;5029740;28;20484;-75
2022/01/24 03:14:21;;;;;;;0.80;0.60;;;6.50;1.00;;;;;;5032505;28;20453;-75
2022/01/24 03:16:47;;;;;;;0.50;0.50;;;6.50;1.00;;;;;;5045279;28;20445;-75
2022/01/24 03:19:14;;;;;;;0.50;0.50;;;6.50;1.00;;;;;;5076614;28;20412;-75
2022/01/24 03:21:41;;;;;;;0.77;0.50;;;6.50;1.00;;;;;;5066416;28;20620;-75
2022/01/24 03:24:07;;;;;;;0.80;0.80;;;6.50;1.00;;;;;;5074885;28;20412;-75
2022/01/24 03:26:32;;;;;;;0.70;0.70;;;6.50;1.00;;;;;;5076996;28;20853;-75
2022/01/24 03:28:58;;;;;;;0.77;0.73;;;6.40;1.00;;;;;;5076366;28;20209;-75
2022/01/24 03:31:23;;;;;;;0.87;0.83;;;6.40;1.00;;;;;;5067464;28;20286;-76
2022/01/24 03:33:49;;;;;;;1.23;0.70;;;6.40;1.00;;;;;;5062678;28;20176;-76
2022/01/24 03:36:15;;;;;;;2.20;0.70;;;6.50;1.00;;;;;;5071822;28;20175;-75
2022/01/24 03:38:40;;;;;;;0.50;0.50;;;6.60;1.00;;;;;;5069593;28;20413;-75
2022/01/24 03:41:06;;;;;;;0.90;0.80;;;6.50;1.00;;;;;;5070804;28;20175;-75
2022/01/24 03:43:32;;;;;;;4.00;0.90;;;6.50;1.00;;;;;;5066832;28;20262;-75
2022/01/24 03:48:47;;;;;;;0.63;0.63;;;6.50;1.00;;;;;;5075680;28;20185;-75
2022/01/24 03:51:14;;;;;;;12.53;0.97;;;6.50;1.00;;;;;;5072562;28;20502;-75
2022/01/24 03:53:42;;;;;;;2.87;0.70;;;6.50;1.00;;;;;;5069837;28;20554;-75
2022/01/24 03:56:08;;;;;;;1.17;0.87;;;6.50;1.00;;;;;;5059223;28;20777;-75
2022/01/24 03:58:34;;;;;;;0.90;0.57;;;6.50;1.00;;;;;;5069808;28;20417;-75
2022/01/24 04:01:01;;;;;;;1.67;0.60;;;6.40;1.00;;;;;;5074432;28;20892;-75
2022/01/24 04:03:26;;;;;;;0.90;0.50;;;6.50;1.00;;;;;;5070076;28;20417;-75
2022/01/24 04:05:52;;;;;;;0.50;0.50;;;6.50;1.00;;;;;;5071467;28;20945;-75
2022/01/24 04:08:18;;;;;;;1.33;0.60;;;6.50;1.00;;;;;;5069821;28;20536;-75
2022/01/24 04:10:47;;;;;;;0.60;0.60;;;6.50;1.00;;;;;;5062472;28;20174;-75
2022/01/24 04:18:50;;;;;;;0.70;0.60;;;6.40;1.00;;;;;;5071580;28;20433;-75
2022/01/24 04:23:48;;;;;;;0.80;0.80;;;6.40;1.00;;;;;;5061289;28;20405;-75
2022/01/24 04:26:14;;;;;;;0.87;0.83;;;6.40;1.00;;;;;;5060118;28;20460;-75
2022/01/24 04:28:40;;;;;;;0.83;0.80;;;6.40;1.00;;;;;;5055308;28;20395;-75
2022/01/24 04:31:06;;;;;;;1.10;1.00;;;6.40;1.00;;;;;;5055314;28;20198;-75
2022/01/24 04:33:32;;;;;;;0.90;0.77;;;6.40;1.00;;;;;;5064264;28;20180;-75
2022/01/24 04:35:58;;;;;;;0.70;0.70;;;6.40;1.00;;;;;;5063878;28;20414;-75
2022/01/24 04:38:24;;;;;;;0.57;0.57;;;6.30;1.00;;;;;;5075238;28;20179;-75
2022/01/24 04:40:55;;;;;;;0.60;0.60;;;6.30;1.00;;;;;;5075399;28;20206;-75
2022/01/24 04:51:36;;;;;;;0.60;0.60;;;6.30;1.00;;;;;;5073820;28;20494;-75
2022/01/24 04:56:36;;;;;;;0.60;0.60;;;6.40;1.00;;;;;;5071781;28;20417;-75
2022/01/24 04:59:03;;;;;;;1.27;1.00;;;6.40;1.00;;;;;;5074458;28;20444;-75
2022/01/24 05:01:28;;;;;;;0.60;0.60;;;6.40;1.00;;;;;;5061314;28;20482;-75
2022/01/24 05:03:54;;;;;;;3.70;0.70;;;6.40;1.00;;;;;;5061407;28;20423;-75
2022/01/24 05:06:20;;;;;;;1.00;0.70;;;6.40;1.00;;;;;;5068208;28;20698;-75
2022/01/24 05:08:45;;;;;;;0.80;0.70;;;6.30;1.00;;;;;;5065883;28;20216;-75
2022/01/24 05:11:16;;;;;;;1.70;0.80;;;6.20;1.00;;;;;;5074838;28;20199;-75
2022/01/24 05:24:34;;;;;;;1.60;0.70;;;6.40;1.00;;;;;;5065133;28;20420;-75
2022/01/24 05:26:59;;;;;;;0.60;0.60;;;6.40;1.00;;;;;;5062008;28;20520;-75
2022/01/24 05:29:25;;;;;;;0.77;0.70;;;6.40;1.00;;;;;;5074255;28;20437;-76
2022/01/24 05:31:51;;;;;;;0.70;0.70;;;6.40;1.00;;;;;;5074296;28;20536;-75
2022/01/24 05:34:16;;;;;;;0.63;0.63;;;6.30;1.00;;;;;;5064642;28;20179;-76
2022/01/24 05:36:42;;;;;;;0.67;0.67;;;6.30;1.00;;;;;;5067087;28;20194;-75
2022/01/24 05:39:08;;;;;;;0.50;0.50;;;7.90;1.00;;;;;;5074121;28;20195;-76
2022/01/24 05:41:36;;;;;;;0.60;0.60;;;6.40;1.00;;;;;;5074273;28;20880;-75
2022/01/24 05:44:02;;;;;;;0.50;0.50;;;6.40;1.00;;;;;;5058742;28;20171;-75
2022/01/24 05:46:27;;;;;;;0.70;0.70;;;6.40;1.00;;;;;;5060251;28;20494;-75
2022/01/24 05:48:54;;;;;;;0.50;0.50;;;6.40;1.00;;;;;;5072018;28;20239;-77
2022/01/24 05:51:20;;;;;;;0.60;0.60;;;6.40;1.00;;;;;;5071900;28;20285;-75
2022/01/24 05:53:46;;;;;;;2.53;0.90;;;6.40;1.00;;;;;;5071191;28;20421;-75
2022/01/24 05:56:12;;;;;;;0.70;0.70;;;6.40;1.00;;;;;;5067249;28;20634;-75
2022/01/24 05:58:38;;;;;;;0.80;0.80;;;6.40;1.00;;;;;;5073643;28;20828;-75
2022/01/24 06:01:03;;;;;;;0.83;0.77;;;6.50;1.00;;;;;;5066130;28;20217;-76
2022/01/24 06:03:29;;;;;;;0.90;0.90;;;6.50;1.00;;;;;;5063272;28;20317;-76
2022/01/24 06:05:55;;;;;;;0.60;0.60;;;6.20;1.00;;;;;;5067748;28;20623;-77
2022/01/24 06:08:20;;;;;;;0.87;0.80;;;6.20;1.00;;;;;;5065044;28;20206;-76
2022/01/24 06:10:47;;;;;;;0.70;0.70;;;;;;;;;;5073459;28;20182;-76
2022/01/24 06:13:13;;;;;;;0.83;0.60;;;6.20;1.00;;;;;;5062356;28;20191;-76
2022/01/24 06:15:40;;;;;;;1.40;0.73;;;6.30;1.00;;;;;;5066014;28;20900;-76
2022/01/24 06:18:05;;;;;;;3.70;0.60;;;6.30;1.00;;;;;;5065113;28;20928;-77
2022/01/24 06:20:31;;;;;;;1.43;0.80;;;6.30;1.00;;;;;;5069612;28;20433;-76
2022/01/24 06:22:56;;;;;;;2.30;0.70;;;6.30;1.00;;;;;;5061027;28;20190;-76
2022/01/24 06:25:24;;;;;;;1.40;1.07;;;6.30;1.00;;;;;;5070712;28;20183;-76
2022/01/24 06:27:50;;;;;;;0.70;0.70;;;6.40;1.00;;;;;;5068258;28;20175;-76
2022/01/24 06:30:16;;;;;;;0.87;0.87;;;6.30;1.00;;;;;;5072753;28;20425;-76
2022/01/24 06:32:42;;;;;;;0.70;0.70;;;6.30;1.00;;;;;;5062211;28;20845;-75
2022/01/24 06:35:09;;;;;;;1.23;0.90;;;6.20;1.00;;;;;;5053162;28;20476;-75
2022/01/24 06:37:36;;;;;;;1.10;1.00;;;6.30;1.00;;;;;;5056751;28;20425;-74
2022/01/24 06:40:03;;;;;;;0.80;0.80;;;6.30;1.00;;;;;;5064950;28;20432;-74
2022/01/24 06:42:29;;;;;;;0.70;0.70;;;6.30;1.00;;;;;;5066122;28;20413;-74
2022/01/24 06:44:56;;;;;;;0.70;0.70;;;7.50;1.00;;;;;;5072820;28;20418;-75
2022/01/24 06:47:22;;;;;;;0.70;0.70;;;6.30;1.00;;;;;;5069372;28;20175;-75
2022/01/24 06:49:48;;;;;;;0.80;0.80;;;6.30;1.00;;;;;;5055576;28;20564;-76
2022/01/24 06:52:14;;;;;;;1.67;1.03;;;6.30;1.00;;;;;;5065503;28;20742;-75
2022/01/24 06:54:41;;;;;;;0.80;0.80;;;6.30;1.00;;;;;;5072162;28;20960;-75
2022/01/24 06:57:09;;;;;;;1.00;0.90;;;6.30;1.00;;;;;;5067626;28;20253;-75
2022/01/24 06:59:36;;;;;;;1.03;0.93;;;6.20;1.00;;;;;;5072808;28;20413;-75
2022/01/24 07:02:02;;;;;;;1.43;1.13;;;6.10;1.00;;;;;;5072455;28;20447;-75
2022/01/24 07:04:29;;;;;;;1.40;1.30;;;6.20;1.00;;;;;;5072916;28;20421;-75
2022/01/24 07:06:55;;;;;;;0.80;0.80;;;6.30;1.00;;;;;;5072721;28;20912;-76
2022/01/24 07:09:21;;;;;;;1.00;1.00;;;;;;;;;;5072807;28;20415;-75
2022/01/24 07:11:51;;;;;;;1.27;1.10;;;6.30;1.00;;;;;;5072725;28;20199;-75
2022/01/24 07:14:17;;;;;;;1.10;1.00;;;;;;;;;;5046682;28;20422;-75
2022/01/24 07:19:21;;;;;;;0.90;0.90;;;6.20;1.00;;;;;;5072754;28;20413;-75
2022/01/24 07:21:46;;;;;;;1.10;1.10;;;6.20;1.00;;;;;;5072471;28;20417;-75
2022/01/24 07:24:12;;;;;;;1.07;1.07;;;6.20;1.00;;;;;;5072678;28;20413;-75
2022/01/24 07:26:38;;;;;;;2.70;1.10;;;6.30;1.00;;;;;;5072352;28;20189;-76
2022/01/24 07:29:04;;;;;;;1.43;1.03;;;6.30;1.00;;;;;;5072849;28;20412;-75
2022/01/24 07:31:29;;;;;;;2.20;1.00;;;6.30;1.00;;;;;;5070709;28;20202;-76
2022/01/24 07:33:55;;;;;;;0.83;0.70;;;6.40;1.00;;;;;;5059004;28;20191;-75
2022/01/24 07:36:22;;;;;;;1.40;1.30;;;6.40;1.00;;;;;;5065491;28;20176;-75
2022/01/24 07:38:47;;;;;;;0.80;0.80;;;6.30;1.00;;;;;;5064618;28;20779;-75
2022/01/24 07:41:15;;;;;;;0.73;0.73;;;6.50;1.00;;;;;;5066083;28;20419;-75
2022/01/24 07:43:41;;;;;;;0.80;0.80;;;6.50;1.00;;;;;;5072689;28;20665;-75
2022/01/24 07:46:07;;;;;;;0.70;0.70;;;;;;;;;;5072150;28;20459;-75
2022/01/24 07:48:32;;;;;;;1.00;1.00;;;6.50;1.00;;;;;;5072311;28;20224;-75
2022/01/24 07:50:58;;;;;;;1.10;1.00;;;6.50;1.00;;;;;;5066667;28;20939;-75
2022/01/24 07:53:24;;;;;;;1.37;1.00;;;6.50;1.00;;;;;;5072271;28;20179;-75
2022/01/24 07:55:51;;;;;;;1.87;0.90;;;6.80;1.00;;;;;;5065042;28;20548;-75
2022/01/24 07:58:17;;;;;;;1.10;1.00;;;6.60;1.00;;;;;;5072297;28;20418;-75
2022/01/24 08:00:42;;;;;;;1.03;0.93;;;6.60;1.00;;;;;;5061153;28;20492;-75
2022/01/24 08:03:08;;;;;;;0.70;0.70;;;6.60;1.00;;;;;;5075707;28;20643;-75
2022/01/24 08:05:35;;;;;;;1.53;1.23;;;6.70;1.00;;;;;;5075885;28;20225;-75
2022/01/24 08:08:01;;;;;;;0.97;0.83;;;6.70;1.00;;;;;;5075772;28;20466;-75
2022/01/24 08:10:27;;;;;;;0.70;0.70;;;6.70;1.00;;;;;;5075829;28;20417;-76
2022/01/24 08:12:52;;;;;;;1.60;1.00;;;6.90;1.00;;;;;;5075985;28;20814;-75
2022/01/24 08:15:18;;;;;;;4.70;1.00;;;6.80;1.00;;;;;;5075526;28;20249;-75
2022/01/24 08:17:44;;;;;;;1.10;1.00;;;6.90;1.00;;;;;;5075894;28;20198;-75
2022/01/24 08:20:12;;;;;;;1.50;0.83;;;6.90;1.00;;;;;;5075632;28;20175;-75
2022/01/24 08:22:38;;;;;;;1.30;0.90;;;6.90;1.00;;;;;;5075636;28;20409;-75
2022/01/24 08:25:05;;;;;;;0.80;0.80;;;6.90;1.00;;;;;;5075440;28;20969;-75
2022/01/24 08:27:31;;;;;;;2.63;0.90;;;6.80;1.00;;;;;;5074194;28;20803;-75
2022/01/24 08:29:57;;;;;;;2.00;0.97;;;6.80;1.00;;;;;;5075471;28;20424;-75
2022/01/24 08:32:23;;;;;;;1.03;0.90;;;7.70;1.00;;;;;;5075296;28;20461;-75
2022/01/24 08:34:49;;;;;;;1.10;1.00;;;9.00;1.00;;;;;;5075272;28;20458;-75
2022/01/24 08:37:15;;;;;;;3.30;0.90;;;6.80;1.00;;;;;;5066054;28;20536;-75
2022/01/24 08:39:43;;;;;;;1.23;0.90;;;6.80;1.00;;;;;;5061609;28;20414;-76
2022/01/24 08:42:17;;;;;;;1.87;1.10;;;6.70;1.00;;;;;;5075182;28;20197;-75
2022/01/24 08:47:29;;;;;;;1.83;1.00;;;6.90;1.00;;;;;;5075304;28;20887;-75
2022/01/24 08:49:56;;;;;;;1.03;0.93;;;6.80;1.00;;;;;;5069433;28;20413;-75
2022/01/24 08:52:22;;;;;;;1.07;1.07;;;7.00;1.00;;;;;;5062709;28;20457;-75
2022/01/24 08:54:48;;;;;;;1.40;1.30;;;7.00;1.00;;;;;;5054790;28;20402;-75
2022/01/24 08:57:14;;;;;;;2.40;1.10;;;;;;;;;;5054288;28;20808;-75
2022/01/24 08:59:41;;;;;;;5.63;0.93;;;7.10;1.00;;;;;;5060413;28;20458;-75
2022/01/24 09:02:08;;;;;;;9.27;1.77;;;8.20;1.00;;;;;;5074864;28;20433;-76
2022/01/24 09:04:34;;;;;;;1.37;0.90;;;7.20;1.00;;;;;;5074636;28;20427;-75
2022/01/24 09:07:04;;;;;;;0.90;0.90;;;7.20;1.00;;;;;;5074744;28;20421;-76
2022/01/24 09:09:34;;;;;;;0.97;0.87;;;7.30;1.00;;;;;;5074654;28;20952;-76
2022/01/24 09:12:02;;;;;;;1.93;1.50;;;7.30;1.00;;;;;;5073747;28;20448;-76
2022/01/24 09:14:27;;;;;;;1.80;1.20;;;7.30;1.00;;;;;;5074859;28;20417;-76
2022/01/24 09:16:53;;;;;;;2.90;1.00;;;7.20;1.00;;;;;;5074782;28;20425;-76
2022/01/24 09:19:19;;;;;;;1.13;1.00;;;7.30;1.00;;;;;;5074537;28;20183;-76
2022/01/24 09:21:44;;;;;;;9.30;1.50;;;7.30;1.00;;;;;;5057213;28;20687;-76
2022/01/24 09:24:10;;;;;;;3.67;1.10;;;;;;;;;;5047719;28;20212;-76
2022/01/24 09:26:36;;;;;;;0.87;0.87;;;7.30;1.00;;;;;;5074331;28;20224;-76
2022/01/24 09:29:02;;;;;;;1.83;1.00;;;7.30;1.00;;;;;;5074370;28;20496;-75
2022/01/24 09:31:28;;;;;;;1.83;1.40;;;7.30;1.00;;;;;;5074186;28;20250;-75
2022/01/24 09:33:54;;;;;;;0.90;0.90;;;7.40;1.00;;;;;;5074051;28;20843;-75
2022/01/24 09:36:20;;;;;;;1.33;0.90;;;7.30;1.00;;;;;;5065426;28;20233;-75
2022/01/24 09:38:46;;;;;;;1.20;1.10;;;7.30;1.00;;;;;;5066505;28;20414;-75
2022/01/24 09:41:13;;;;;;;1.40;1.30;;;7.20;1.00;;;;;;5067683;28;20179;-75
2022/01/24 09:43:39;;;;;;;1.10;1.10;;;7.30;1.00;;;;;;5074287;28;20182;-75
2022/01/24 09:46:05;;;;;;;3.93;1.10;;;7.40;1.00;;;;;;5073800;28;20918;-75
2022/01/24 09:48:31;;;;;;;1.27;1.17;;;7.20;1.00;;;;;;5073960;28;20749;-75
2022/01/24 09:50:57;;;;;;;1.40;1.30;;;7.20;1.00;;;;;;5068620;28;20420;-75
2022/01/24 09:53:24;;;;;;;1.43;1.33;;;7.20;1.00;;;;;;5073770;28;20516;-76
2022/01/24 09:55:51;;;;;;;1.53;1.43;;;7.30;1.00;;;;;;5066853;28;20187;-76
2022/01/24 09:58:19;;;;;;;1.20;1.20;;;7.30;1.00;;;;;;5074249;28;20440;-76
2022/01/24 10:00:47;;;;;;;1.20;1.20;;;7.40;1.00;;;;;;5073753;28;20413;-75
2022/01/24 10:03:13;;;;;;;2.00;1.17;;;7.60;1.00;;;;;;5073441;28;20927;-75
2022/01/24 10:05:42;;;;;;;1.20;1.10;;;7.60;1.00;;;;;;5073398;28;20906;-75
2022/01/24 10:08:14;;;;;;;4.50;1.30;;;7.70;1.00;;;;;;5073529;28;20940;-75
2022/01/24 10:10:48;;;;;;;1.50;1.40;;;7.70;1.00;;;;;;5073353;28;20425;-75
2022/01/24 10:16:25;;;;;;;1.60;1.50;;;7.70;1.00;;;;;;5031094;28;20470;-76
2022/01/24 10:19:01;;;;;;;1.63;1.53;;;7.70;1.00;;;;;;5031018;28;20909;-76
2022/01/24 10:21:27;;;;;;;1.73;1.63;;;7.80;1.00;;;;;;5020393;28;20424;-76
2022/01/24 10:23:55;;;;;;;1.37;1.27;;;8.10;1.00;;;;;;5028767;28;20415;-76
2022/01/24 10:26:21;;;;;;;1.73;1.30;;;8.10;1.00;;;;;;5031072;28;20453;-77
2022/01/24 10:28:47;;;;;;;1.97;1.40;;;8.10;1.00;;;;;;5026836;28;20448;-75
2022/01/24 10:31:24;;;;;;;4.17;1.90;;;8.20;1.00;;;;;;5022427;28;20192;-76
2022/01/24 10:33:52;;;;;;;1.70;1.60;;;8.10;1.00;;;;;;5031046;28;20419;-75
2022/01/24 10:36:47;;;;;;;5.70;2.80;;;8.20;1.00;;;;;;5022661;28;20458;-76
2022/01/24 10:44:59;;;;;;;3.33;1.30;;;8.30;1.00;;;;;;5030736;28;20471;-75
2022/01/24 10:47:34;;;;;;;2.23;1.93;;;8.20;1.00;;;;;;5026055;28;20959;-75
2022/01/24 10:50:20;;;;;;;2.00;1.50;;;8.20;1.00;;;;;;5025193;28;20512;-75
2022/01/24 10:52:46;;;;;;;1.53;1.50;;;8.30;1.00;;;;;;5039852;28;20466;-75
2022/01/24 10:55:17;;;;;;;1.70;1.60;;;8.30;1.00;;;;;;5053941;28;20437;-75
2022/01/24 10:57:46;;;;;;;1.40;1.30;;;8.40;1.00;;;;;;5069525;28;20805;-75
2022/01/24 11:00:17;;;;;;;1.60;1.50;;;8.40;1.00;;;;;;5064264;28;20485;-76
2022/01/24 11:02:50;;;;;;;1.50;1.40;;;8.40;1.00;;;;;;5071340;28;20524;-75
2022/01/24 11:05:45;;;;;;;1.30;1.20;;;8.40;1.00;;;;;;5073315;28;20408;-76
2022/01/24 11:08:17;;;;;;;1.30;1.30;;;8.50;1.00;;;;;;5006746;28;20926;-76
2022/01/24 11:10:48;;;;;;;1.73;1.63;;;8.50;1.00;;;;;;4991007;28;20421;-76
2022/01/24 11:13:18;;;;;;;1.50;1.30;;;8.40;1.00;;;;;;4990892;28;20490;-75
2022/01/24 11:15:54;;;;;;;1.60;1.30;;;8.20;1.00;;;;;;5008410;28;20422;-75
2022/01/24 11:18:21;;;;;;;2.17;1.63;;;8.30;1.00;;;;;;5010513;28;20436;-75
2022/01/24 11:20:46;;;;;;;2.07;1.50;;;8.40;1.00;;;;;;5010534;28;20434;-75
2022/01/24 11:23:13;;;;;;;1.27;1.20;;;8.40;1.00;;;;;;5010623;28;20503;-75
2022/01/24 11:25:47;;;;;;;1.17;1.10;;;8.50;1.00;;;;;;5004586;28;20648;-75
2022/01/24 11:28:12;;;;;;;1.20;1.10;;;8.90;1.00;;;;;;5000427;28;20432;-75
2022/01/24 11:30:40;;;;;;;1.80;1.43;;;8.80;1.00;;;;;;5000936;28;20431;-75
2022/01/24 11:33:17;;;;;;;1.40;1.30;;;8.80;1.00;;;;;;4997154;28;20201;-75
2022/01/24 11:35:50;;;;;;;1.20;1.10;;;8.90;1.00;;;;;;5009650;28;20420;-75
2022/01/24 11:38:36;;;;;;;1.93;1.53;;;9.50;1.00;;;;;;5013606;28;20483;-75
2022/01/24 11:41:07;;;;;;;2.20;2.00;;;8.80;1.00;;;;;;5010580;28;20435;-75
2022/01/24 11:43:36;;;;;;;2.00;1.77;;;8.70;1.00;;;;;;4998277;28;20438;-75
2022/01/24 11:46:27;;;;;;;1.50;1.40;;;8.80;1.00;;;;;;5070993;28;20425;-76
2022/01/24 11:49:27;;;;;;;1.90;1.80;;;8.70;1.00;;;;;;5060298;28;20422;-76
2022/01/24 11:52:10;;;;;;;1.40;1.30;;;8.70;1.00;;;;;;5044322;28;20544;-76
2022/01/24 11:54:50;;;;;;;1.60;1.47;;;8.80;1.00;;;;;;5053724;28;20421;-76
2022/01/24 11:57:18;;;;;;;1.40;1.30;;;8.80;1.00;;;;;;5032885;28;20425;-77
2022/01/24 11:59:44;;;;;;;2.97;1.90;;;8.80;1.00;;;;;;5053786;28;20418;-75
2022/01/24 12:02:24;;;;;;;1.73;1.50;;;8.80;1.00;;;;;;5053425;28;20446;-75
2022/01/24 12:04:59;;;;;;;2.33;1.50;;;8.70;1.00;;;;;;5053534;28;20924;-75
2022/01/24 12:07:26;;;;;;;3.43;1.20;;;8.70;1.00;;;;;;5053592;28;20417;-75
2022/01/24 12:09:54;;;;;;;1.57;1.47;;;8.70;1.00;;;;;;5053445;28;20422;-75
2022/01/24 12:12:46;;;;;;;1.73;1.63;;;8.70;1.00;;;;;;5053312;28;20889;-75
2022/01/24 12:15:50;;;;;;;1.20;1.20;;;8.80;1.00;;;;;;5053674;28;20426;-76
2022/01/24 12:18:23;;;;;;;1.57;1.30;;;8.80;1.00;;;;;;5053289;28;20613;-76
2022/01/24 12:20:51;;;;;;;1.50;1.40;;;8.80;1.00;;;;;;5053278;28;20422;-76
2022/01/24 12:23:20;;;;;;;1.40;1.30;;;8.90;1.00;;;;;;5053317;28;20457;-76
2022/01/24 12:26:02;;;;;;;1.60;1.13;;;8.70;1.00;;;;;;5048042;28;20454;-76
2022/01/24 12:28:42;;;;;;;1.33;1.23;;;8.80;1.00;;;;;;5060780;28;20453;-76
2022/01/24 12:31:28;;;;;;;1.57;1.17;;;8.90;1.00;;;;;;5075717;28;20421;-75
2022/01/24 12:33:54;;;;;;;1.43;1.33;;;;;;;;;;5075250;28;20413;-75
2022/01/24 12:39:12;;;;;;;2.20;1.70;;;8.90;1.00;;;;;;5063849;28;20505;-75
2022/01/24 12:41:43;;;;;;;1.30;1.20;;;8.90;1.00;;;;;;5075136;28;20424;-75
2022/01/24 12:46:16;;;;;;;1.50;1.40;;;8.80;1.00;;;;;;5075243;28;20417;-75
2022/01/24 12:46:55;;;;;;;1.80;1.20;;;8.80;1.00;;;;;;5073917;28;20463;-75
2022/01/24 12:49:21;;;;;;;1.33;1.17;;;9.60;1.00;;;;;;5069063;28;20410;-75
2022/01/24 12:51:48;;;;;;;1.23;1.00;;;8.60;1.00;;;;;;5073015;28;20199;-75
2022/01/24 12:54:16;;;;;;;1.00;0.90;;;8.60;1.00;;;;;;5075390;28;20477;-75
2022/01/24 12:56:42;;;;;;;1.10;0.90;;;8.60;1.00;;;;;;5057803;28;20469;-75
2022/01/24 12:59:08;;;;;;;1.10;1.10;;;8.60;1.00;;;;;;5054948;28;20820;-75
2022/01/24 13:01:37;;;;;;;1.10;1.10;;;8.60;1.00;;;;;;5073851;28;20439;-75
2022/01/24 13:04:10;;;;;;;0.93;0.93;;;8.60;1.00;;;;;;5074819;28;20447;-75
2022/01/24 13:06:39;;;;;;;2.93;1.20;;;8.50;1.00;;;;;;5074557;28;20417;-75
2022/01/24 13:09:14;;;;;;;2.07;1.40;;;9.20;1.00;;;;;;5074674;28;20516;-75
2022/01/24 13:11:47;;;;;;;1.00;0.90;;;8.70;1.00;;;;;;5073337;28;20513;-75
2022/01/24 13:14:19;;;;;;;1.00;1.00;;;8.70;1.00;;;;;;5074535;28;20441;-75
2022/01/24 13:22:34;;;;;;;2.30;1.27;;;8.50;1.00;;;;;;5067894;28;20420;-75
2022/01/24 13:25:06;;;;;;;2.00;0.90;;;8.60;1.00;;;;;;5065983;28;20466;-75
2022/01/24 13:27:40;;;;;;;1.10;1.00;;;8.70;1.00;;;;;;5060702;28;20421;-75
2022/01/24 13:30:13;;;;;;;2.10;1.20;;;8.80;1.00;;;;;;5074221;28;20408;-75
2022/01/24 13:32:58;;;;;;;0.90;0.90;;;8.80;1.00;;;;;;5074664;28;20527;-76
2022/01/24 13:35:33;;;;;;;1.07;0.97;;;8.90;1.00;;;;;;5073133;28;20439;-76
2022/01/24 13:38:25;;;;;;;1.03;0.97;;;9.00;1.00;;;;;;5066039;28;20405;-76
2022/01/24 13:41:09;;;;;;;0.97;0.80;;;9.00;1.00;;;;;;5067357;28;20417;-76
2022/01/24 13:43:53;;;;;;;1.40;1.20;;;9.00;1.00;;;;;;5074298;28;20408;-76
2022/01/24 13:46:27;;;;;;;1.47;0.90;;;9.00;1.00;;;;;;5074240;28;20444;-76
2022/01/24 13:48:56;;;;;;;0.80;0.80;;;8.90;1.00;;;;;;5071865;28;20419;-76
2022/01/24 13:51:25;;;;;;;1.27;1.17;;;8.80;1.00;;;;;;5067987;28;20789;-76
2022/01/24 13:53:51;;;;;;;1.10;1.07;;;8.80;1.00;;;;;;5073769;28;20402;-76
2022/01/24 13:56:32;;;;;;;0.90;0.90;;;8.80;1.00;;;;;;5064227;28;20552;-76
2022/01/24 13:59:03;;;;;;;1.27;0.90;;;8.60;1.00;;;;;;5073538;28;20170;-76
2022/01/24 14:01:29;;;;;;;1.10;1.00;;;8.60;1.00;;;;;;5073654;28;20460;-76
2022/01/24 14:03:57;;;;;;;1.73;1.07;;;8.60;1.00;;;;;;5073729;28;20417;-76
2022/01/24 14:06:22;;;;;;;2.20;1.13;;;8.60;1.00;;;;;;5073388;28;20410;-76
2022/01/24 14:09:11;;;;;;;1.00;1.00;;;8.70;1.00;;;;;;5057922;28;20425;-76
2022/01/24 14:11:42;;;;;;;0.90;0.90;;;8.60;1.00;;;;;;5060139;28;20290;-76
2022/01/24 14:14:13;;;;;;;1.00;1.00;;;;;;;;;;5071871;28;20417;-76
2022/01/24 14:16:49;;;;;;;1.60;1.10;;;8.60;1.00;;;;;;5073903;28;20424;-76
2022/01/24 14:19:16;;;;;;;1.40;1.07;;;;;;;;;;5072724;28;20413;-76
2022/01/24 14:21:59;;;;;;;1.43;1.33;;;8.50;1.00;;;;;;5064161;28;20413;-76
2022/01/24 14:24:58;;;;;;;1.50;1.20;;;8.50;1.00;;;;;;5073191;28;20436;-77
2022/01/24 14:27:37;;;;;;;1.20;1.20;;;8.50;1.00;;;;;;5057079;28;20508;-76
2022/01/24 14:30:05;;;;;;;1.27;1.00;;;8.50;1.00;;;;;;5054279;28;20463;-77
2022/01/24 14:32:34;;;;;;;0.97;0.97;;;8.40;1.00;;;;;;5067725;28;20457;-75
2022/01/24 14:35:08;;;;;;;1.30;1.20;;;8.40;1.00;;;;;;5071314;28;20559;-76
2022/01/24 14:37:51;;;;;;;0.90;0.90;;;8.50;1.00;;;;;;5069942;28;20416;-75
2022/01/24 14:40:46;;;;;;;1.30;1.20;;;8.50;1.00;;;;;;5056069;28;20416;-76
2022/01/24 14:46:06;;;;;;;1.43;1.33;;;8.20;1.00;;;;;;5060990;28;20441;-75
2022/01/24 14:49:00;;;;;;;2.80;1.67;;;8.10;1.00;;;;;;5067785;28;20422;-75
2022/01/24 14:51:34;;;;;;;2.40;1.50;;;8.10;1.00;;;;;;5051539;28;20421;-75
2022/01/24 14:54:03;;;;;;;2.73;1.50;;;8.10;1.00;;;;;;5065589;28;20413;-75
2022/01/24 14:56:30;;;;;;;9.33;1.80;;;7.90;1.00;;;;;;5063608;28;20926;-75
2022/01/24 14:58:57;;;;;;;1.33;1.23;;;7.90;1.00;;;;;;5067994;28;20495;-75
2022/01/24 15:01:23;;;;;;;1.20;1.10;;;7.80;1.00;;;;;;5059385;28;20446;-74
2022/01/24 15:03:49;;;;;;;3.90;1.60;;;7.90;1.00;;;;;;5070897;28;20462;-75
2022/01/24 15:06:16;;;;;;;1.70;1.50;;;7.90;1.00;;;;;;5064451;28;20641;-75
2022/01/24 15:08:44;;;;;;;1.30;1.20;;;7.90;1.00;;;;;;5070657;28;20431;-75
2022/01/24 15:11:13;;;;;;;1.47;1.37;;;7.90;1.00;;;;;;5064337;28;20405;-75
2022/01/24 15:13:44;;;;;;;2.20;1.77;;;7.90;1.00;;;;;;5088063;28;20474;-77
2022/01/24 15:16:16;;;;;;;3.37;1.90;;;7.80;1.00;;;;;;5069131;28;20417;-76
2022/01/24 15:26:57;;;;;;;1.70;1.60;;;7.70;1.00;;;;;;5049165;28;20410;-76
2022/01/24 15:29:23;;;;;;;3.40;2.23;;;7.60;1.00;;;;;;5071058;28;20900;-79
2022/01/24 15:31:49;;;;;;;1.67;1.57;;;7.60;1.00;;;;;;5061767;28;20465;-76
2022/01/24 15:34:18;;;;;;;1.93;1.83;;;7.60;1.00;;;;;;5058677;28;20418;-78
2022/01/24 15:36:45;;;;;;;2.63;1.90;;;7.60;1.00;;;;;;5057616;28;20504;-76
2022/01/24 15:39:11;;;;;;;2.13;2.00;;;7.60;1.00;;;;;;5059849;28;20555;-76